Time;durP1;ratioP1;P1;durP2;ratioP2;P2;SDS_P1;SDS_P2;PMS_P1;PMS_P2;Temp;Humidity;BMP_temperature;BMP_pressure;BME280_temperature;BME280_humidity;BME280_pressure;Samples;Min_cycle;Max_cycle;Signal;HPM_P1;HPM_P2
2022/01/19 00:01:35;;;;;;;;;;;20.80;32.70;;;;;;482565;247;1167;-44
2022/01/19 00:03:36;;;;;;;;;;;20.80;32.70;;;;;;482727;247;1023;-44
2022/01/19 00:05:38;;;;;;;;;;;20.80;32.60;;;;;;482556;247;1342;-44
2022/01/19 00:07:39;;;;;;;;;;;20.80;32.70;;;;;;482626;247;2126;-44
2022/01/19 00:09:40;;;;;;;;;;;20.80;32.70;;;;;;482721;247;1031;-44
2022/01/19 00:11:42;;;;;;;;;;;20.70;32.70;;;;;;482310;247;1259;-44
2022/01/19 00:13:43;;;;;;;;;;;20.80;32.70;;;;;;482358;247;1216;-44
2022/01/19 00:15:44;;;;;;;;;;;20.80;32.80;;;;;;482254;240;1370;-44
2022/01/19 00:17:45;;;;;;;;;;;20.70;32.80;;;;;;482617;247;1244;-44
2022/01/19 00:19:47;;;;;;;;;;;20.70;32.70;;;;;;482472;247;1045;-44
2022/01/19 00:21:48;;;;;;;;;;;20.70;32.70;;;;;;482376;239;1325;-44
2022/01/19 00:23:49;;;;;;;;;;;20.70;32.80;;;;;;482208;247;1106;-43
2022/01/19 00:25:51;;;;;;;;;;;20.70;32.80;;;;;;482525;247;1222;-44
2022/01/19 00:27:52;;;;;;;;;;;20.70;32.70;;;;;;482255;247;2192;-44
2022/01/19 00:29:53;;;;;;;;;;;20.70;32.70;;;;;;482224;247;1113;-43
2022/01/19 00:31:55;;;;;;;;;;;20.70;32.70;;;;;;482155;247;1208;-44
2022/01/19 00:33:56;;;;;;;;;;;20.70;32.80;;;;;;482499;247;1280;-44
2022/01/19 00:35:57;;;;;;;;;;;20.70;32.80;;;;;;482669;239;1114;-44
2022/01/19 00:37:59;;;;;;;;;;;20.70;32.80;;;;;;482188;247;1084;-44
2022/01/19 00:40:00;;;;;;;;;;;20.70;32.80;;;;;;482253;247;1108;-44
2022/01/19 00:42:01;;;;;;;;;;;20.60;32.80;;;;;;482199;247;1316;-44
2022/01/19 00:44:03;;;;;;;;;;;20.70;32.80;;;;;;482410;247;1246;-44
2022/01/19 00:46:04;;;;;;;;;;;20.70;32.80;;;;;;482691;239;1128;-44
2022/01/19 00:48:05;;;;;;;;;;;20.70;32.70;;;;;;482211;247;2184;-44
2022/01/19 00:50:06;;;;;;;;;;;20.70;32.80;;;;;;482245;247;1074;-44
2022/01/19 00:52:08;;;;;;;;;;;20.70;32.80;;;;;;482117;247;1327;-44
2022/01/19 00:54:09;;;;;;;;;;;20.60;32.70;;;;;;482246;247;1080;-44
2022/01/19 00:56:10;;;;;;;;;;;20.70;32.80;;;;;;482473;247;1666;-44
2022/01/19 00:58:12;;;;;;;;;;;20.70;32.70;;;;;;482503;247;1212;-43
2022/01/19 01:00:13;;;;;;;;;;;20.70;32.70;;;;;;482245;247;1114;-44
2022/01/19 01:02:15;;;;;;;;;;;20.70;32.70;;;;;;482086;247;1580;-44
2022/01/19 01:04:16;;;;;;;;;;;20.60;32.80;;;;;;482722;247;1172;-44
2022/01/19 01:06:17;;;;;;;;;;;20.70;32.80;;;;;;482575;247;1257;-43
2022/01/19 01:08:19;;;;;;;;;;;20.60;32.70;;;;;;482665;247;2189;-44
2022/01/19 01:10:20;;;;;;;;;;;20.70;32.70;;;;;;482515;247;1063;-44
2022/01/19 01:12:28;;;;;;;;;;;20.60;32.80;;;;;;482173;247;1339;-44
2022/01/19 01:17:09;;;;;;;;;;;20.60;32.70;;;;;;482076;239;1440;-44
2022/01/19 01:18:52;;;;;;;;;;;20.60;32.80;;;;;;480930;247;2372;-44
2022/01/19 01:20:54;;;;;;;;;;;20.60;32.80;;;;;;482357;247;1258;-43
2022/01/19 01:22:55;;;;;;;;;;;20.60;32.80;;;;;;482280;247;1233;-44
2022/01/19 01:24:57;;;;;;;;;;;20.60;32.80;;;;;;482750;247;1022;-43
2022/01/19 01:26:58;;;;;;;;;;;20.60;32.80;;;;;;482231;247;1351;-44
2022/01/19 01:28:59;;;;;;;;;;;20.60;32.80;;;;;;482407;247;2122;-44
2022/01/19 01:31:01;;;;;;;;;;;20.60;32.80;;;;;;482259;247;1038;-44
2022/01/19 01:33:02;;;;;;;;;;;20.60;32.80;;;;;;482150;247;1147;-44
2022/01/19 01:35:03;;;;;;;;;;;20.60;32.80;;;;;;482631;247;1223;-44
2022/01/19 01:37:05;;;;;;;;;;;20.60;32.80;;;;;;482148;247;1366;-43
2022/01/19 01:39:06;;;;;;;;;;;20.60;32.80;;;;;;482667;247;1020;-44
2022/01/19 01:41:08;;;;;;;;;;;20.60;32.80;;;;;;482545;247;1247;-44
2022/01/19 01:43:09;;;;;;;;;;;20.50;32.80;;;;;;482190;247;1198;-44
2022/01/19 01:45:13;;;;;;;;;;;20.60;32.90;;;;;;482213;247;1053;-44
2022/01/19 01:47:14;;;;;;;;;;;20.50;32.90;;;;;;481948;247;2340;-44
2022/01/19 01:49:19;;;;;;;;;;;20.50;32.80;;;;;;482202;247;2255;-44
2022/01/19 01:53:35;;;;;;;;;;;20.50;32.80;;;;;;482197;247;1246;-43
2022/01/19 01:55:36;;;;;;;;;;;20.60;32.90;;;;;;482637;247;1258;-43
2022/01/19 01:57:38;;;;;;;;;;;20.60;32.90;;;;;;482252;247;1091;-44
2022/01/19 01:59:39;;;;;;;;;;;20.60;32.90;;;;;;482273;247;1429;-44
2022/01/19 02:01:41;;;;;;;;;;;20.60;32.80;;;;;;482673;247;1057;-44
2022/01/19 02:03:42;;;;;;;;;;;20.60;32.80;;;;;;482690;247;1072;-43
2022/01/19 02:05:58;;;;;;;;;;;20.60;32.90;;;;;;482262;247;1388;-44
2022/01/19 02:07:49;;;;;;;;;;;20.50;32.90;;;;;;481121;240;2271;-44
2022/01/19 02:09:51;;;;;;;;;;;20.50;32.90;;;;;;481948;247;2113;-44
2022/01/19 02:16:51;;;;;;;;;;;20.50;32.80;;;;;;482479;247;1207;-43
2022/01/19 02:23:25;;;;;;;;;;;20.50;32.80;;;;;;482357;247;1106;-44
2022/01/19 02:25:30;;;;;;;;;;;20.50;32.80;;;;;;482103;247;1870;-44
2022/01/19 02:30:32;;;;;;;;;;;20.50;32.80;;;;;;474806;247;1136;-44
2022/01/19 02:40:09;;;;;;;;;;;20.50;32.80;;;;;;482176;247;1344;-44
2022/01/19 02:41:15;;;;;;;;;;;20.50;32.90;;;;;;482449;247;2039;-44
2022/01/19 02:43:22;;;;;;;;;;;20.50;32.80;;;;;;482227;247;1170;-44
2022/01/19 02:50:00;;;;;;;;;;;20.50;32.80;;;;;;482366;247;1207;-44
2022/01/19 02:52:01;;;;;;;;;;;20.50;32.80;;;;;;482308;247;1190;-43
2022/01/19 02:54:03;;;;;;;;;;;20.50;32.80;;;;;;482284;247;1039;-44
2022/01/19 02:56:08;;;;;;;;;;;20.50;32.90;;;;;;482530;239;1445;-44
2022/01/19 02:58:06;;;;;;;;;;;20.40;32.80;;;;;;482075;247;2245;-44
2022/01/19 03:09:24;;;;;;;;;;;20.60;32.70;;;;;;482695;247;2117;-44
2022/01/19 03:11:25;;;;;;;;;;;20.60;32.70;;;;;;482522;247;1188;-44
2022/01/19 03:13:27;;;;;;;;;;;20.60;32.70;;;;;;482361;247;1261;-44
2022/01/19 03:15:28;;;;;;;;;;;20.60;32.70;;;;;;482729;247;1101;-43
2022/01/19 03:17:29;;;;;;;;;;;20.60;32.60;;;;;;482647;247;1234;-44
2022/01/19 03:19:31;;;;;;;;;;;20.60;32.70;;;;;;482761;247;1050;-44
2022/01/19 03:21:32;;;;;;;;;;;20.60;32.70;;;;;;482583;247;1184;-43
2022/01/19 03:23:33;;;;;;;;;;;20.60;32.60;;;;;;482257;247;1220;-44
2022/01/19 03:25:38;;;;;;;;;;;20.60;32.70;;;;;;482346;247;1214;-44
2022/01/19 03:27:36;;;;;;;;;;;20.60;32.60;;;;;;481994;247;2365;-44
2022/01/19 03:29:37;;;;;;;;;;;20.60;32.50;;;;;;482536;247;2118;-43
2022/01/19 03:31:39;;;;;;;;;;;20.60;32.50;;;;;;482651;247;1236;-43
2022/01/19 03:33:40;;;;;;;;;;;20.60;32.50;;;;;;482722;247;1309;-44
2022/01/19 03:35:41;;;;;;;;;;;20.60;32.50;;;;;;482413;247;1243;-44
2022/01/19 03:37:43;;;;;;;;;;;20.70;32.50;;;;;;482369;247;1208;-44
2022/01/19 03:39:44;;;;;;;;;;;20.60;32.50;;;;;;482296;247;1217;-44
2022/01/19 03:41:46;;;;;;;;;;;20.70;32.50;;;;;;482594;247;1194;-43
2022/01/19 03:43:47;;;;;;;;;;;20.60;32.40;;;;;;482367;247;1139;-44
2022/01/19 03:45:52;;;;;;;;;;;20.70;32.50;;;;;;482713;247;1307;-44
2022/01/19 03:48:05;;;;;;;;;;;20.70;32.40;;;;;;482146;247;2236;-44
2022/01/19 03:49:53;;;;;;;;;;;20.70;32.40;;;;;;481626;247;2265;-44
2022/01/19 03:51:58;;;;;;;;;;;20.70;32.30;;;;;;482146;247;1348;-43
2022/01/19 03:53:57;;;;;;;;;;;20.70;32.40;;;;;;482565;247;2146;-44
2022/01/19 03:55:58;;;;;;;;;;;20.70;32.40;;;;;;482571;247;1219;-43
2022/01/19 03:57:59;;;;;;;;;;;20.70;32.40;;;;;;482541;247;1291;-44
2022/01/19 04:00:00;;;;;;;;;;;20.70;32.30;;;;;;482279;247;1065;-43
2022/01/19 04:02:02;;;;;;;;;;;20.70;32.40;;;;;;482662;247;1351;-44
2022/01/19 04:04:28;;;;;;;;;;;20.80;32.40;;;;;;482737;247;1041;-44
2022/01/19 04:06:20;;;;;;;;;;;20.80;32.30;;;;;;481485;247;2116;-44
2022/01/19 04:08:18;;;;;;;;;;;20.80;32.30;;;;;;481961;247;2188;-44
2022/01/19 04:10:19;;;;;;;;;;;20.80;32.30;;;;;;482208;247;1068;-44
2022/01/19 04:12:40;;;;;;;;;;;20.70;32.30;;;;;;482142;247;1061;-44
2022/01/19 04:14:22;;;;;;;;;;;20.70;32.30;;;;;;480731;247;2263;-44
2022/01/19 04:16:23;;;;;;;;;;;20.80;32.30;;;;;;482141;247;1219;-44
2022/01/19 04:18:25;;;;;;;;;;;20.80;32.30;;;;;;482193;247;1216;-43
2022/01/19 04:20:26;;;;;;;;;;;20.80;32.30;;;;;;482716;247;1068;-44
2022/01/19 04:22:27;;;;;;;;;;;20.80;32.30;;;;;;482104;247;1226;-44
2022/01/19 04:24:29;;;;;;;;;;;20.70;32.30;;;;;;482673;247;1096;-44
2022/01/19 04:26:31;;;;;;;;;;;20.80;32.30;;;;;;482169;247;1208;-43
2022/01/19 04:28:33;;;;;;;;;;;20.80;32.40;;;;;;482147;247;2278;-44
2022/01/19 04:30:33;;;;;;;;;;;20.70;32.30;;;;;;482228;247;2225;-44
2022/01/19 04:32:41;;;;;;;;;;;20.70;32.30;;;;;;482087;247;1677;-44
2022/01/19 04:34:37;;;;;;;;;;;20.70;32.40;;;;;;482221;247;2114;-44
2022/01/19 04:36:59;;;;;;;;;;;20.60;32.50;;;;;;482199;247;2492;-44
2022/01/19 04:39:20;;;;;;;;;;;20.60;32.50;;;;;;480708;247;1709;-44
2022/01/19 04:46:11;;;;;;;;;;;20.60;32.60;;;;;;482605;247;1152;-44
2022/01/19 04:48:21;;;;;;;;;;;20.60;32.60;;;;;;481982;247;1793;-44
2022/01/19 05:02:03;;;;;;;;;;;20.50;32.60;;;;;;482201;247;1184;-44
2022/01/19 05:04:02;;;;;;;;;;;20.50;32.60;;;;;;481662;247;2085;-43
2022/01/19 05:06:00;;;;;;;;;;;20.50;32.70;;;;;;481536;247;2225;-44
2022/01/19 05:08:03;;;;;;;;;;;20.50;32.80;;;;;;482257;247;2079;-44
2022/01/19 05:13:23;;;;;;;;;;;20.50;32.70;;;;;;482179;247;2155;-44
2022/01/19 05:14:22;;;;;;;;;;;20.50;32.70;;;;;;482273;247;1961;-44
2022/01/19 05:16:24;;;;;;;;;;;20.50;32.70;;;;;;482543;247;1336;-44
2022/01/19 05:18:25;;;;;;;;;;;20.50;32.70;;;;;;482606;247;1220;-44
2022/01/19 05:20:26;;;;;;;;;;;20.50;32.70;;;;;;482211;247;1131;-43
2022/01/19 05:22:28;;;;;;;;;;;20.50;32.80;;;;;;482483;247;1261;-44
2022/01/19 05:24:29;;;;;;;;;;;20.40;32.80;;;;;;482633;247;1044;-44
2022/01/19 05:26:31;;;;;;;;;;;20.50;32.80;;;;;;482255;247;1153;-44
2022/01/19 05:28:32;;;;;;;;;;;20.50;32.70;;;;;;482542;247;1296;-44
2022/01/19 05:30:33;;;;;;;;;;;20.60;32.50;;;;;;482328;247;2142;-44
2022/01/19 05:32:34;;;;;;;;;;;20.80;32.20;;;;;;482231;247;1209;-44
2022/01/19 05:34:36;;;;;;;;;;;21.00;31.90;;;;;;482551;247;1113;-44
2022/01/19 05:36:37;;;;;;;;;;;21.10;31.60;;;;;;482076;239;1195;-44
2022/01/19 05:38:38;;;;;;;;;;;21.20;31.50;;;;;;482578;247;1203;-44
2022/01/19 05:40:40;;;;;;;;;;;21.30;31.40;;;;;;482420;247;1057;-44
2022/01/19 05:42:41;;;;;;;;;;;21.40;31.30;;;;;;482079;247;1232;-44
2022/01/19 05:44:43;;;;;;;;;;;21.40;31.10;;;;;;482069;247;1192;-44
2022/01/19 05:46:44;;;;;;;;;;;21.50;31.10;;;;;;481931;247;2617;-44
2022/01/19 05:48:45;;;;;;;;;;;21.50;30.90;;;;;;482309;247;2197;-44
2022/01/19 05:50:46;;;;;;;;;;;21.60;30.90;;;;;;482177;247;1149;-44
2022/01/19 05:52:48;;;;;;;;;;;21.60;30.90;;;;;;482013;247;1216;-43
2022/01/19 05:54:49;;;;;;;;;;;21.70;30.90;;;;;;482181;247;1298;-44
2022/01/19 05:56:52;;;;;;;;;;;21.70;30.90;;;;;;482370;239;1181;-44
2022/01/19 05:58:52;;;;;;;;;;;21.70;30.80;;;;;;482162;247;2336;-44
2022/01/19 06:00:54;;;;;;;;;;;21.80;30.70;;;;;;481979;247;1152;-43
2022/01/19 06:02:55;;;;;;;;;;;21.80;30.70;;;;;;481973;247;1248;-44
2022/01/19 06:04:56;;;;;;;;;;;21.80;30.60;;;;;;482493;247;1015;-44
2022/01/19 06:06:58;;;;;;;;;;;21.90;30.60;;;;;;482111;247;1112;-44
2022/01/19 06:09:09;;;;;;;;;;;21.90;30.60;;;;;;481994;247;2189;-44
2022/01/19 06:11:03;;;;;;;;;;;21.90;30.60;;;;;;481440;247;2619;-44
2022/01/19 06:13:04;;;;;;;;;;;21.90;30.50;;;;;;482278;247;1157;-44
2022/01/19 06:15:06;;;;;;;;;;;21.90;30.50;;;;;;482089;247;1203;-44
2022/01/19 06:17:07;;;;;;;;;;;22.00;30.50;;;;;;482039;247;1197;-44
2022/01/19 06:19:08;;;;;;;;;;;22.00;30.50;;;;;;482289;247;1094;-44
2022/01/19 06:21:09;;;;;;;;;;;22.00;30.50;;;;;;481968;240;1326;-44
2022/01/19 06:23:11;;;;;;;;;;;22.00;30.40;;;;;;482314;247;1273;-44
2022/01/19 06:25:12;;;;;;;;;;;22.10;30.40;;;;;;482029;247;1065;-44
2022/01/19 06:27:14;;;;;;;;;;;22.00;30.40;;;;;;481869;247;1197;-44
2022/01/19 06:29:15;;;;;;;;;;;22.10;30.40;;;;;;482271;247;2188;-44
2022/01/19 06:31:16;;;;;;;;;;;22.10;30.30;;;;;;481954;247;1479;-44
2022/01/19 06:33:18;;;;;;;;;;;22.10;30.30;;;;;;482025;247;1195;-44
2022/01/19 06:35:19;;;;;;;;;;;22.10;30.30;;;;;;482206;247;987;-44
2022/01/19 06:37:20;;;;;;;;;;;22.10;30.30;;;;;;482237;247;1738;-44
2022/01/19 06:39:22;;;;;;;;;;;22.10;30.30;;;;;;482023;247;1098;-44
2022/01/19 06:41:23;;;;;;;;;;;22.10;30.30;;;;;;482039;247;1335;-44
2022/01/19 06:43:25;;;;;;;;;;;22.20;30.30;;;;;;481966;247;1073;-44
2022/01/19 06:45:27;;;;;;;;;;;22.20;30.30;;;;;;481994;247;1184;-44
2022/01/19 06:47:27;;;;;;;;;;;22.20;30.30;;;;;;481870;247;2616;-44
2022/01/19 06:49:29;;;;;;;;;;;22.20;30.30;;;;;;482064;247;2121;-44
2022/01/19 06:51:30;;;;;;;;;;;22.20;30.20;;;;;;481842;247;1390;-44
2022/01/19 06:53:31;;;;;;;;;;;22.20;30.20;;;;;;481990;247;1273;-44
2022/01/19 06:55:33;;;;;;;;;;;22.30;30.20;;;;;;481892;247;1045;-44
2022/01/19 06:57:34;;;;;;;;;;;22.20;30.20;;;;;;482022;247;1213;-44
2022/01/19 06:59:35;;;;;;;;;;;22.20;30.20;;;;;;481903;247;1370;-44
2022/01/19 07:01:37;;;;;;;;;;;22.30;30.20;;;;;;481762;247;1312;-44
2022/01/19 07:03:38;;;;;;;;;;;22.30;30.20;;;;;;482068;247;1365;-44
2022/01/19 07:05:39;;;;;;;;;;;22.30;30.20;;;;;;481855;247;1123;-43
2022/01/19 07:07:41;;;;;;;;;;;22.30;30.10;;;;;;481724;247;1505;-44
2022/01/19 07:09:42;;;;;;;;;;;22.30;30.10;;;;;;481885;247;2192;-44
2022/01/19 07:11:43;;;;;;;;;;;22.30;30.10;;;;;;481741;240;1178;-44
2022/01/19 07:13:45;;;;;;;;;;;22.30;30.00;;;;;;481856;247;1060;-44
2022/01/19 07:15:46;;;;;;;;;;;22.30;30.00;;;;;;481775;243;1373;-44
2022/01/19 07:17:47;;;;;;;;;;;22.30;29.90;;;;;;481782;247;1167;-44
2022/01/19 07:19:49;;;;;;;;;;;22.40;29.90;;;;;;482109;247;1137;-44
2022/01/19 07:21:50;;;;;;;;;;;22.40;29.90;;;;;;481782;247;1399;-43
2022/01/19 07:23:51;;;;;;;;;;;22.40;29.90;;;;;;481542;247;1138;-44
2022/01/19 07:25:52;;;;;;;;;;;22.40;30.00;;;;;;481555;247;1134;-44
2022/01/19 07:27:54;;;;;;;;;;;22.40;29.90;;;;;;481648;247;1183;-44
2022/01/19 07:29:55;;;;;;;;;;;22.50;29.80;;;;;;481742;247;2188;-44
2022/01/19 07:31:58;;;;;;;;;;;22.50;29.80;;;;;;481718;247;1240;-44
2022/01/19 07:33:58;;;;;;;;;;;22.40;29.70;;;;;;481680;247;2045;-44
2022/01/19 07:35:59;;;;;;;;;;;22.40;29.70;;;;;;481727;247;1414;-44
2022/01/19 07:38:00;;;;;;;;;;;22.50;29.70;;;;;;481743;247;1105;-44
2022/01/19 07:40:02;;;;;;;;;;;22.50;29.70;;;;;;481976;247;1062;-44
2022/01/19 07:42:03;;;;;;;;;;;22.50;29.70;;;;;;481694;247;1303;-44
2022/01/19 07:44:04;;;;;;;;;;;22.50;29.70;;;;;;481638;247;1327;-44
2022/01/19 07:46:06;;;;;;;;;;;22.50;29.70;;;;;;481618;247;1235;-44
2022/01/19 07:48:07;;;;;;;;;;;22.50;29.60;;;;;;481233;247;1252;-43
2022/01/19 07:50:08;;;;;;;;;;;22.50;29.70;;;;;;481603;247;2188;-43
2022/01/19 07:52:09;;;;;;;;;;;22.50;29.60;;;;;;481534;247;1364;-44
2022/01/19 07:54:11;;;;;;;;;;;22.50;29.70;;;;;;481758;247;1139;-44
2022/01/19 07:56:13;;;;;;;;;;;22.60;29.70;;;;;;481591;247;1497;-44
2022/01/19 07:58:14;;;;;;;;;;;22.60;29.60;;;;;;481537;247;1169;-44
2022/01/19 08:00:15;;;;;;;;;;;22.50;29.50;;;;;;481510;247;1449;-44
2022/01/19 08:02:17;;;;;;;;;;;22.50;29.50;;;;;;481416;247;1446;-44
2022/01/19 08:06:21;;;;;;;;;;;22.60;29.50;;;;;;459841;250;3558;-46
2022/01/19 08:08:23;;;;;;;;;;;22.60;29.60;;;;;;458202;258;1253;-46
2022/01/19 08:10:24;;;;;;;;;;;22.60;29.60;;;;;;458029;259;2131;-46
2022/01/19 08:12:25;;;;;;;;;;;22.60;29.60;;;;;;457919;259;1311;-46
2022/01/19 08:14:26;;;;;;;;;;;22.60;29.60;;;;;;458196;258;1159;-46
2022/01/19 08:16:28;;;;;;;;;;;22.60;29.60;;;;;;458217;258;1430;-46
2022/01/19 08:18:29;;;;;;;;;;;22.60;29.50;;;;;;458171;259;1092;-46
2022/01/19 08:20:30;;;;;;;;;;;22.60;29.50;;;;;;458305;259;1210;-46
2022/01/19 08:22:32;;;;;;;;;;;22.60;29.40;;;;;;457834;258;1439;-46
2022/01/19 08:24:33;;;;;;;;;;;22.60;29.40;;;;;;458004;259;1096;-46
2022/01/19 08:26:34;;;;;;;;;;;22.60;29.40;;;;;;458293;258;1570;-46
2022/01/19 08:28:36;;;;;;;;;;;22.60;29.40;;;;;;458362;258;1261;-46
2022/01/19 08:30:37;;;;;;;;;;;22.60;29.50;;;;;;458248;258;2127;-46
2022/01/19 08:32:38;;;;;;;;;;;22.60;29.40;;;;;;458187;259;1512;-46
2022/01/19 08:34:40;;;;;;;;;;;22.70;29.40;;;;;;458292;258;1202;-46
2022/01/19 08:36:42;;;;;;;;;;;22.70;29.40;;;;;;458035;259;1264;-46
2022/01/19 08:38:43;;;;;;;;;;;22.70;29.40;;;;;;458156;258;1273;-47
2022/01/19 08:40:44;;;;;;;;;;;22.70;29.30;;;;;;458200;258;1440;-45
2022/01/19 08:42:45;;;;;;;;;;;22.70;29.30;;;;;;458229;258;1257;-46
2022/01/19 08:44:47;;;;;;;;;;;22.70;29.40;;;;;;458192;258;1385;-46
2022/01/19 08:46:48;;;;;;;;;;;22.70;29.40;;;;;;458040;259;1279;-46
2022/01/19 08:48:49;;;;;;;;;;;22.70;29.40;;;;;;458223;258;1128;-45
2022/01/19 08:50:51;;;;;;;;;;;22.70;29.30;;;;;;458170;258;2202;-46
2022/01/19 08:52:52;;;;;;;;;;;22.70;29.40;;;;;;458353;258;1314;-46
2022/01/19 08:54:53;;;;;;;;;;;22.80;29.40;;;;;;458230;259;1291;-46
2022/01/19 08:56:55;;;;;;;;;;;22.70;29.30;;;;;;458141;258;1336;-46
2022/01/19 08:58:57;;;;;;;;;;;22.70;29.40;;;;;;458153;258;1156;-46
2022/01/19 09:00:58;;;;;;;;;;;22.80;29.30;;;;;;458189;258;1475;-46
2022/01/19 09:02:59;;;;;;;;;;;22.70;29.30;;;;;;458711;258;1299;-46
2022/01/19 09:05:01;;;;;;;;;;;22.80;29.30;;;;;;458275;258;1238;-46
2022/01/19 09:07:02;;;;;;;;;;;22.70;29.30;;;;;;458040;259;1239;-46
2022/01/19 09:09:03;;;;;;;;;;;22.80;29.30;;;;;;457744;258;1280;-46
2022/01/19 09:11:06;;;;;;;;;;;22.80;29.20;;;;;;457825;258;2210;-46
2022/01/19 09:13:06;;;;;;;;;;;22.80;29.30;;;;;;458109;259;2072;-46
2022/01/19 09:15:07;;;;;;;;;;;22.80;29.30;;;;;;457985;259;1340;-46
2022/01/19 09:17:08;;;;;;;;;;;22.80;29.20;;;;;;458129;259;1266;-46
2022/01/19 09:19:11;;;;;;;;;;;22.80;29.30;;;;;;458245;258;1352;-46
2022/01/19 09:21:11;;;;;;;;;;;22.80;29.30;;;;;;458030;259;2081;-46
2022/01/19 09:23:13;;;;;;;;;;;22.80;29.30;;;;;;458212;259;1213;-46
2022/01/19 09:25:14;;;;;;;;;;;22.80;29.30;;;;;;457934;259;1489;-45
2022/01/19 09:27:18;;;;;;;;;;;22.80;29.30;;;;;;457788;259;1187;-46
2022/01/19 09:29:17;;;;;;;;;;;22.80;29.30;;;;;;457848;258;2119;-46
2022/01/19 09:31:19;;;;;;;;;;;22.80;29.30;;;;;;457915;258;2205;-46
2022/01/19 09:33:21;;;;;;;;;;;22.80;29.30;;;;;;457772;259;1954;-46
2022/01/19 09:35:24;;;;;;;;;;;22.80;29.20;;;;;;458214;258;2134;-46
2022/01/19 09:37:24;;;;;;;;;;;22.80;29.20;;;;;;457963;258;2627;-46
2022/01/19 09:39:25;;;;;;;;;;;22.80;29.20;;;;;;458192;259;1254;-46
2022/01/19 09:41:26;;;;;;;;;;;22.80;29.20;;;;;;458286;258;1294;-46
2022/01/19 09:43:28;;;;;;;;;;;22.80;29.10;;;;;;458116;258;1348;-46
2022/01/19 09:45:29;;;;;;;;;;;22.80;29.30;;;;;;458166;259;1244;-46
2022/01/19 09:47:30;;;;;;;;;;;22.80;29.20;;;;;;458149;258;1230;-46
2022/01/19 09:49:32;;;;;;;;;;;22.80;29.20;;;;;;458076;258;1310;-46
2022/01/19 09:51:33;;;;;;;;;;;22.80;29.20;;;;;;457922;259;2202;-46
2022/01/19 09:53:34;;;;;;;;;;;22.80;29.20;;;;;;458110;258;1188;-46
2022/01/19 09:55:36;;;;;;;;;;;22.80;29.20;;;;;;457908;258;1121;-46
2022/01/19 09:57:37;;;;;;;;;;;22.80;29.10;;;;;;457909;259;1392;-46
2022/01/19 09:59:38;;;;;;;;;;;22.90;29.10;;;;;;458002;258;1466;-46
2022/01/19 10:01:40;;;;;;;;;;;22.90;29.10;;;;;;457957;258;1567;-46
2022/01/19 10:03:41;;;;;;;;;;;22.90;29.10;;;;;;458129;258;1114;-46
2022/01/19 10:05:42;;;;;;;;;;;22.90;29.10;;;;;;457990;258;1256;-46
2022/01/19 10:07:44;;;;;;;;;;;22.80;29.10;;;;;;457977;258;1129;-46
2022/01/19 10:09:45;;;;;;;;;;;22.90;29.20;;;;;;458054;258;1156;-45
2022/01/19 10:17:00;;;;;;;;;;;22.80;29.20;;;;;;444631;266;1348;-45
2022/01/19 10:19:01;;;;;;;;;;;22.90;29.20;;;;;;448840;264;1231;-46
2022/01/19 10:21:02;;;;;;;;;;;22.80;29.10;;;;;;450316;264;1274;-45
2022/01/19 10:23:03;;;;;;;;;;;22.90;29.10;;;;;;458275;260;1143;-46
2022/01/19 10:25:05;;;;;;;;;;;22.90;29.10;;;;;;450391;264;1082;-46
2022/01/19 10:27:06;;;;;;;;;;;22.90;29.10;;;;;;458188;260;1169;-46
2022/01/19 10:29:07;;;;;;;;;;;22.90;29.10;;;;;;450856;264;1105;-46
2022/01/19 10:31:09;;;;;;;;;;;22.90;29.10;;;;;;458021;260;2143;-46
2022/01/19 10:33:10;;;;;;;;;;;22.90;29.10;;;;;;450288;264;1379;-46
2022/01/19 10:35:11;;;;;;;;;;;22.80;29.10;;;;;;450133;264;1119;-46
2022/01/19 10:37:13;;;;;;;;;;;22.80;29.30;;;;;;458779;259;1425;-46
2022/01/19 10:39:14;;;;;;;;;;;22.80;29.30;;;;;;457900;259;1222;-46
2022/01/19 10:41:16;;;;;;;;;;;22.60;29.60;;;;;;458007;260;1257;-46
2022/01/19 10:43:17;;;;;;;;;;;22.40;29.80;;;;;;458042;260;1133;-46
2022/01/19 10:45:18;;;;;;;;;;;22.20;30.00;;;;;;458245;260;1081;-46
2022/01/19 10:47:19;;;;;;;;;;;22.00;30.20;;;;;;458135;260;1212;-46
2022/01/19 10:49:21;;;;;;;;;;;22.00;30.30;;;;;;458147;260;1108;-46
2022/01/19 10:51:22;;;;;;;;;;;21.90;30.40;;;;;;457860;258;2225;-46
2022/01/19 10:53:23;;;;;;;;;;;21.80;30.60;;;;;;457974;260;1169;-46
2022/01/19 10:55:24;;;;;;;;;;;21.80;30.60;;;;;;458450;260;1116;-46
2022/01/19 10:57:26;;;;;;;;;;;21.70;30.70;;;;;;458143;260;1194;-46
2022/01/19 10:59:27;;;;;;;;;;;21.70;30.80;;;;;;458136;260;1348;-46
2022/01/19 11:01:28;;;;;;;;;;;21.60;30.80;;;;;;458158;259;1577;-46
2022/01/19 11:03:30;;;;;;;;;;;21.60;30.90;;;;;;458069;260;1313;-46
2022/01/19 11:05:31;;;;;;;;;;;21.60;30.90;;;;;;458180;260;1103;-46
2022/01/19 11:07:32;;;;;;;;;;;21.50;30.80;;;;;;458153;260;1320;-46
2022/01/19 11:09:34;;;;;;;;;;;21.50;30.80;;;;;;458081;260;1346;-46
2022/01/19 11:11:35;;;;;;;;;;;21.50;30.90;;;;;;458057;260;2271;-46
2022/01/19 11:13:40;;;;;;;;;;;21.50;30.90;;;;;;458119;260;1362;-46
2022/01/19 11:15:40;;;;;;;;;;;21.50;31.00;;;;;;458014;260;2108;-46
2022/01/19 11:17:41;;;;;;;;;;;21.50;31.00;;;;;;458277;260;1068;-45
2022/01/19 11:19:43;;;;;;;;;;;21.40;31.00;;;;;;458298;260;1333;-46
2022/01/19 11:21:44;;;;;;;;;;;21.50;31.00;;;;;;458097;260;1368;-46
2022/01/19 11:23:45;;;;;;;;;;;21.40;31.10;;;;;;458075;260;1013;-46
2022/01/19 11:25:47;;;;;;;;;;;21.30;31.10;;;;;;458481;260;1468;-46
2022/01/19 11:27:48;;;;;;;;;;;21.40;31.10;;;;;;458081;260;1180;-45
2022/01/19 11:29:49;;;;;;;;;;;21.40;31.10;;;;;;458247;260;1132;-46
2022/01/19 11:31:51;;;;;;;;;;;21.30;31.10;;;;;;458002;260;2198;-46
2022/01/19 11:33:52;;;;;;;;;;;21.30;31.10;;;;;;458102;260;1242;-46
2022/01/19 11:35:54;;;;;;;;;;;21.30;31.10;;;;;;458231;260;1085;-46
2022/01/19 11:37:55;;;;;;;;;;;21.30;31.10;;;;;;458250;260;1194;-46
2022/01/19 11:39:56;;;;;;;;;;;21.30;31.10;;;;;;458092;260;1123;-46
2022/01/19 11:41:58;;;;;;;;;;;21.20;31.20;;;;;;458194;252;1334;-45
2022/01/19 11:43:59;;;;;;;;;;;21.20;31.20;;;;;;458313;260;1178;-46
2022/01/19 11:46:02;;;;;;;;;;;21.20;31.20;;;;;;458175;260;1108;-46
2022/01/19 11:48:02;;;;;;;;;;;21.20;31.20;;;;;;458124;260;1583;-46
2022/01/19 11:50:03;;;;;;;;;;;21.20;31.20;;;;;;458222;260;1119;-46
2022/01/19 11:52:05;;;;;;;;;;;21.20;31.20;;;;;;458212;252;2201;-46
2022/01/19 11:54:06;;;;;;;;;;;21.20;31.10;;;;;;458444;260;1103;-45
2022/01/19 11:56:08;;;;;;;;;;;21.20;31.10;;;;;;458098;260;1243;-46
2022/01/19 11:58:09;;;;;;;;;;;21.10;31.10;;;;;;458103;260;1928;-46
2022/01/19 12:00:11;;;;;;;;;;;21.20;31.10;;;;;;458163;260;1132;-46
2022/01/19 12:02:12;;;;;;;;;;;21.10;31.10;;;;;;458283;260;1277;-46
2022/01/19 12:04:13;;;;;;;;;;;21.20;31.20;;;;;;458742;260;1076;-46
2022/01/19 12:06:14;;;;;;;;;;;21.10;31.20;;;;;;458210;260;1865;-46
2022/01/19 12:08:16;;;;;;;;;;;21.10;31.20;;;;;;458678;260;1192;-46
2022/01/19 12:10:19;;;;;;;;;;;21.20;31.20;;;;;;458152;260;1277;-46
2022/01/19 12:12:21;;;;;;;;;;;21.20;31.20;;;;;;458055;259;2487;-46
2022/01/19 12:14:23;;;;;;;;;;;21.10;31.10;;;;;;458112;260;2129;-46
2022/01/19 12:16:28;;;;;;;;;;;21.10;31.00;;;;;;457908;259;2169;-46
2022/01/19 12:18:23;;;;;;;;;;;21.10;31.10;;;;;;457745;259;2513;-46
2022/01/19 12:20:24;;;;;;;;;;;21.20;31.10;;;;;;458202;260;1358;-46
2022/01/19 12:22:27;;;;;;;;;;;21.10;31.00;;;;;;458130;260;1238;-45
2022/01/19 12:24:29;;;;;;;;;;;21.20;31.10;;;;;;458129;259;2168;-46
2022/01/19 12:26:28;;;;;;;;;;;21.20;31.00;;;;;;458072;259;2223;-46
2022/01/19 12:28:30;;;;;;;;;;;21.20;31.00;;;;;;458162;260;1471;-46
2022/01/19 12:30:31;;;;;;;;;;;21.10;30.90;;;;;;458056;260;1373;-45
2022/01/19 12:32:32;;;;;;;;;;;21.20;30.90;;;;;;458144;260;2146;-45
2022/01/19 12:34:34;;;;;;;;;;;21.20;30.80;;;;;;458052;260;1359;-45
2022/01/19 12:36:35;;;;;;;;;;;21.30;30.70;;;;;;458289;252;1446;-46
2022/01/19 12:38:36;;;;;;;;;;;21.30;30.70;;;;;;458194;260;1185;-46
2022/01/19 12:40:40;;;;;;;;;;;21.30;30.70;;;;;;458056;260;1355;-45
2022/01/19 12:42:39;;;;;;;;;;;21.30;30.70;;;;;;457964;259;1732;-46
2022/01/19 12:44:41;;;;;;;;;;;21.30;30.70;;;;;;458161;260;1150;-47
2022/01/19 12:46:42;;;;;;;;;;;21.30;30.60;;;;;;457919;260;1276;-46
2022/01/19 12:48:47;;;;;;;;;;;21.40;30.60;;;;;;458113;260;1279;-46
2022/01/19 12:50:45;;;;;;;;;;;21.30;30.50;;;;;;457870;260;2022;-46
2022/01/19 12:52:46;;;;;;;;;;;21.40;30.50;;;;;;458093;260;2201;-46
2022/01/19 12:54:48;;;;;;;;;;;21.40;30.50;;;;;;458126;260;1372;-45
2022/01/19 12:56:49;;;;;;;;;;;21.40;30.50;;;;;;458177;260;1309;-45
2022/01/19 12:58:50;;;;;;;;;;;21.40;30.50;;;;;;458782;260;751;-45
2022/01/19 13:00:51;;;;;;;;;;;21.40;30.50;;;;;;458056;260;1459;-46
2022/01/19 13:02:53;;;;;;;;;;;21.40;30.50;;;;;;458578;260;1197;-45